createdAt,value
2023-03-28T00:02:06.087Z,88.08
2023-03-28T00:04:34.178Z,88.10
2023-03-28T00:07:02.158Z,88.92
2023-03-28T00:09:31.547Z,89.05
2023-03-28T00:11:59.471Z,88.75
2023-03-28T00:14:27.383Z,89.71
2023-03-28T00:16:55.107Z,90.08
2023-03-28T00:19:23.037Z,89.78
2023-03-28T00:21:51.641Z,89.24
2023-03-28T00:24:21.569Z,89.65
2023-03-28T00:26:54.530Z,90.45
2023-03-28T00:29:26.085Z,90.03
2023-03-28T00:31:54.022Z,89.58
2023-03-28T00:34:22.101Z,90.27
2023-03-28T00:36:50.740Z,89.95
2023-03-28T00:39:18.464Z,89.67
2023-03-28T00:41:46.823Z,89.47
2023-03-28T00:44:45.610Z,89.35
2023-03-28T00:47:25.821Z,89.30
2023-03-28T00:49:57.000Z,88.35
2023-03-28T00:52:29.627Z,89.00
2023-03-28T00:54:59.460Z,89.18
2023-03-28T00:57:30.068Z,88.97
2023-03-28T00:59:59.461Z,88.98
2023-03-28T01:02:27.854Z,89.58
2023-03-28T01:05:00.409Z,88.69
2023-03-28T01:07:35.272Z,88.68
2023-03-28T01:10:05.128Z,88.78
2023-03-28T01:12:34.483Z,89.58
2023-03-28T01:15:05.353Z,89.16
2023-03-28T01:17:46.368Z,89.41
2023-03-28T01:20:32.647Z,89.97
2023-03-28T01:23:23.860Z,90.38
2023-03-28T01:26:18.537Z,90.60
2023-03-28T01:29:12.416Z,90.15
2023-03-28T01:32:08.062Z,90.42
2023-03-28T01:35:33.109Z,91.43
2023-03-28T01:38:10.720Z,91.40
2023-03-28T01:40:47.604Z,92.03
2023-03-28T01:43:27.187Z,92.33
2023-03-28T01:46:00.403Z,92.08
2023-03-28T01:48:41.180Z,92.81
2023-03-28T01:51:16.167Z,92.88
2023-03-28T01:53:48.886Z,92.79
2023-03-28T01:56:23.872Z,93.08
2023-03-28T01:58:57.256Z,94.31
2023-03-28T02:01:46.778Z,94.55
2023-03-28T02:04:21.397Z,93.91
2023-03-28T02:07:01.903Z,95.08
2023-03-28T02:09:37.699Z,95.64
2023-03-28T02:12:12.480Z,97.26
2023-03-28T02:14:58.267Z,97.17
2023-03-28T02:18:00.992Z,98.78
2023-03-28T02:20:57.607Z,99.23
2023-03-28T02:23:48.869Z,99.93
2023-03-28T02:26:34.854Z,100.00
2023-03-28T02:29:16.812Z,100.00
2023-03-28T02:31:52.775Z,100.00
2023-03-28T02:34:20.731Z,100.00
2023-03-28T02:36:58.105Z,100.00
2023-03-28T02:39:47.019Z,100.00
2023-03-28T02:42:36.383Z,100.00
2023-03-28T02:45:39.643Z,100.00
2023-03-28T02:48:20.128Z,100.00
2023-03-28T02:50:57.515Z,100.00
2023-03-28T02:53:33.483Z,100.00
2023-03-28T02:56:07.942Z,100.00
2023-03-28T02:58:58.409Z,99.02
2023-03-28T03:01:29.320Z,99.03
2023-03-28T03:03:58.345Z,100.00
2023-03-28T03:06:26.427Z,100.00
2023-03-28T03:08:54.656Z,100.00
2023-03-28T03:11:27.927Z,100.00
2023-03-28T03:14:00.096Z,100.00
2023-03-28T03:16:29.623Z,100.00
2023-03-28T03:18:59.579Z,100.00
2023-03-28T03:21:28.073Z,100.00
2023-03-28T03:23:56.202Z,100.00
2023-03-28T03:26:24.148Z,100.00
2023-03-28T03:29:01.459Z,100.00
2023-03-28T03:31:30.099Z,100.00
2023-03-28T03:34:05.882Z,100.00
2023-03-28T03:36:40.546Z,100.00
2023-03-28T03:39:09.167Z,100.00
2023-03-28T03:41:37.710Z,100.00
2023-03-28T03:44:09.079Z,100.00
2023-03-28T03:46:37.777Z,100.00
2023-03-28T03:49:05.856Z,100.00
2023-03-28T03:51:34.886Z,100.00
2023-03-28T03:54:02.675Z,100.00
2023-03-28T03:56:35.796Z,100.00
2023-03-28T03:59:03.572Z,100.00
2023-03-28T04:01:34.864Z,100.00
2023-03-28T04:04:34.844Z,100.00
2023-03-28T04:07:12.476Z,100.00
2023-03-28T04:09:40.358Z,100.00
2023-03-28T04:12:09.607Z,100.00
2023-03-28T04:14:57.809Z,100.00
2023-03-28T04:17:56.920Z,100.00
2023-03-28T04:20:29.842Z,100.00
2023-03-28T04:23:09.689Z,100.00
2023-03-28T04:25:41.906Z,100.00
2023-03-28T04:28:17.323Z,100.00
2023-03-28T04:30:59.599Z,100.00
2023-03-28T04:33:47.694Z,100.00
2023-03-28T04:36:18.939Z,100.00
2023-03-28T04:38:58.282Z,100.00
2023-03-28T04:41:46.078Z,100.00
2023-03-28T04:44:26.568Z,100.00
2023-03-28T04:47:03.312Z,100.00
2023-03-28T04:49:33.141Z,100.00
2023-03-28T04:52:01.185Z,100.00
2023-03-28T04:54:29.560Z,100.00
2023-03-28T04:57:06.732Z,100.00
2023-03-28T04:59:44.242Z,100.00
2023-03-28T05:02:18.390Z,100.00
2023-03-28T05:05:04.784Z,100.00
2023-03-28T05:07:33.691Z,100.00
2023-03-28T05:10:01.444Z,100.00
2023-03-28T05:12:35.720Z,100.00
2023-03-28T05:15:06.215Z,100.00
2023-03-28T05:17:40.977Z,100.00
2023-03-28T05:20:21.399Z,100.00
2023-03-28T05:22:53.412Z,100.00
2023-03-28T05:25:21.962Z,100.00
2023-03-28T05:27:50.407Z,100.00
2023-03-28T05:30:18.134Z,100.00
2023-03-28T05:32:47.996Z,100.00
2023-03-28T05:35:17.796Z,100.00
2023-03-28T05:37:48.175Z,100.00
2023-03-28T05:40:16.873Z,100.00
2023-03-28T05:42:44.898Z,100.00
2023-03-28T05:45:19.597Z,100.00
2023-03-28T05:48:00.394Z,100.00
2023-03-28T05:50:28.736Z,100.00
2023-03-28T05:53:02.828Z,100.00
2023-03-28T05:55:31.547Z,100.00
2023-03-28T05:58:00.187Z,100.00
2023-03-28T06:00:37.156Z,100.00
2023-03-28T06:03:05.811Z,100.00
2023-03-28T06:05:37.657Z,100.00
2023-03-28T06:08:20.203Z,100.00
2023-03-28T06:10:49.447Z,100.00
2023-03-28T06:13:28.858Z,100.00
2023-03-28T06:15:56.686Z,100.00
2023-03-28T06:18:32.988Z,100.00
2023-03-28T06:21:01.164Z,100.00
2023-03-28T06:23:30.627Z,100.00
2023-03-28T06:25:58.927Z,100.00
2023-03-28T06:28:33.289Z,100.00
2023-03-28T06:31:21.726Z,100.00
2023-03-28T06:33:50.745Z,100.00
2023-03-28T06:36:21.748Z,100.00
2023-03-28T06:38:53.538Z,100.00
2023-03-28T06:41:22.873Z,100.00
2023-03-28T06:43:51.722Z,100.00
2023-03-28T06:46:58.087Z,100.00
2023-03-28T06:49:26.472Z,100.00
2023-03-28T06:52:23.408Z,100.00
2023-03-28T06:54:54.626Z,100.00
2023-03-28T06:57:22.549Z,100.00
2023-03-28T06:59:53.827Z,99.60
2023-03-28T07:02:28.810Z,99.26
2023-03-28T07:05:02.508Z,98.63
2023-03-28T07:07:30.293Z,97.38
2023-03-28T07:10:00.514Z,96.91
2023-03-28T07:12:28.259Z,96.07
2023-03-28T07:14:56.471Z,95.65
2023-03-28T07:17:25.015Z,95.19
2023-03-28T07:19:54.457Z,94.54
2023-03-28T07:22:23.572Z,94.57
2023-03-28T07:24:51.358Z,94.21
2023-03-28T07:27:23.819Z,91.58
2023-03-28T07:29:52.883Z,91.89
2023-03-28T07:32:20.915Z,90.71
2023-03-28T07:34:49.178Z,88.16
2023-03-28T07:37:24.564Z,88.14
2023-03-28T07:40:10.772Z,84.54
2023-03-28T07:42:42.310Z,84.14
2023-03-28T07:45:11.790Z,84.84
2023-03-28T07:47:39.640Z,82.69
2023-03-28T07:50:08.673Z,79.37
2023-03-28T07:52:36.610Z,77.60
2023-03-28T07:55:04.759Z,77.85
2023-03-28T07:57:36.884Z,74.85
2023-03-28T08:00:17.749Z,74.16
2023-03-28T08:03:01.753Z,74.35
2023-03-28T08:05:29.696Z,70.79
2023-03-28T08:07:58.576Z,69.47
2023-03-28T08:10:27.058Z,68.46
2023-03-28T08:12:55.616Z,69.07
2023-03-28T08:15:24.773Z,69.42
2023-03-28T08:17:52.931Z,70.13
2023-03-28T08:20:21.420Z,68.28
2023-03-28T08:23:21.438Z,65.73
2023-03-28T08:26:08.285Z,66.31
2023-03-28T08:28:39.558Z,65.26
2023-03-28T08:31:14.127Z,65.27
2023-03-28T08:33:45.480Z,65.07
2023-03-28T08:36:14.826Z,60.81
2023-03-28T08:38:46.804Z,62.62
2023-03-28T08:41:31.238Z,61.14
2023-03-28T08:44:18.659Z,60.34
2023-03-28T08:46:52.144Z,61.28
2023-03-28T08:49:20.848Z,60.27
2023-03-28T08:51:52.702Z,60.67
2023-03-28T08:54:25.886Z,60.47
2023-03-28T08:56:57.010Z,58.52
2023-03-28T08:59:30.484Z,60.40
2023-03-28T09:02:00.290Z,60.83
2023-03-28T09:04:33.014Z,58.66
2023-03-28T09:07:20.297Z,60.38
2023-03-28T09:09:56.901Z,60.72
2023-03-28T09:12:47.191Z,61.69
2023-03-28T09:15:25.475Z,63.10
2023-03-28T09:18:07.709Z,62.82
2023-03-28T09:20:44.719Z,62.72
2023-03-28T09:24:03.969Z,61.61
2023-03-28T09:26:58.543Z,61.33
2023-03-28T09:29:28.671Z,60.52
2023-03-28T09:32:02.484Z,58.94
2023-03-28T09:34:40.598Z,59.66
2023-03-28T09:37:18.279Z,55.80
2023-03-28T09:39:51.624Z,54.98
2023-03-28T09:42:36.250Z,55.01
2023-03-28T09:45:47.061Z,58.21
2023-03-28T09:48:48.440Z,57.79
2023-03-28T09:51:21.739Z,56.65
2023-03-28T09:53:49.738Z,57.09
2023-03-28T09:56:27.683Z,58.01
2023-03-28T09:59:02.761Z,56.64
2023-03-28T10:01:47.896Z,57.26
2023-03-28T10:04:36.886Z,56.07
2023-03-28T10:07:32.599Z,55.18
2023-03-28T10:10:21.675Z,53.25
2023-03-28T10:12:58.386Z,53.82
2023-03-28T10:15:34.233Z,53.54
2023-03-28T10:18:28.074Z,53.38
2023-03-28T10:21:16.847Z,52.46
2023-03-28T10:23:58.693Z,52.58
2023-03-28T10:26:28.384Z,53.46
2023-03-28T10:29:04.305Z,54.16
2023-03-28T10:31:34.232Z,56.14
2023-03-28T10:34:37.910Z,56.32
2023-03-28T10:37:24.693Z,55.21
2023-03-28T10:40:25.729Z,54.10
2023-03-28T10:43:21.982Z,55.38
2023-03-28T10:46:08.733Z,55.80
2023-03-28T10:48:53.954Z,53.78
2023-03-28T10:51:24.695Z,55.59
2023-03-28T10:54:26.481Z,54.22
2023-03-28T10:56:59.443Z,54.02
2023-03-28T10:59:46.909Z,54.49
2023-03-28T11:02:35.348Z,53.78
2023-03-28T11:05:21.752Z,52.43
2023-03-28T11:07:55.585Z,52.81
2023-03-28T11:11:00.095Z,53.48
2023-03-28T11:13:49.501Z,54.35
2023-03-28T11:16:35.308Z,51.67
2023-03-28T11:19:34.063Z,54.81
2023-03-28T11:22:14.755Z,53.17
2023-03-28T11:24:58.804Z,51.45
2023-03-28T11:27:54.865Z,51.88
2023-03-28T11:30:36.416Z,53.38
2023-03-28T11:33:30.436Z,53.42
2023-03-28T11:36:08.901Z,54.47
2023-03-28T11:38:41.502Z,52.58
2023-03-28T11:41:13.991Z,52.89
2023-03-28T11:44:04.283Z,52.90
2023-03-28T11:46:38.363Z,53.64
2023-03-28T11:49:15.311Z,54.77
2023-03-28T11:51:50.032Z,51.78
2023-03-28T11:54:21.331Z,52.48
2023-03-28T11:56:56.208Z,54.28
2023-03-28T11:59:55.447Z,55.20
2023-03-28T12:02:42.351Z,51.94
2023-03-28T12:05:20.883Z,51.17
2023-03-28T12:07:53.734Z,53.49
2023-03-28T12:10:29.384Z,52.54
2023-03-28T12:13:07.175Z,51.96
2023-03-28T12:15:47.321Z,51.88
2023-03-28T12:18:29.106Z,51.51
2023-03-28T12:21:03.459Z,53.24
2023-03-28T12:23:50.173Z,52.97
2023-03-28T12:26:56.037Z,51.28
2023-03-28T12:29:32.654Z,49.76
2023-03-28T12:32:05.245Z,50.92
2023-03-28T12:34:40.571Z,50.44
2023-03-28T12:37:23.416Z,50.94
2023-03-28T12:39:59.513Z,51.24
2023-03-28T12:42:31.060Z,53.76
2023-03-28T12:45:01.977Z,51.71
2023-03-28T12:47:36.430Z,52.32
2023-03-28T12:50:11.262Z,50.38
2023-03-28T12:52:43.761Z,48.48
2023-03-28T12:55:43.781Z,48.59
2023-03-28T12:58:21.074Z,47.89
2023-03-28T13:01:27.239Z,48.96
2023-03-28T13:04:27.463Z,48.87
2023-03-28T13:07:24.850Z,47.07
2023-03-28T13:10:08.174Z,47.38
2023-03-28T13:12:53.960Z,49.43
2023-03-28T13:15:28.500Z,49.96
2023-03-28T13:18:32.656Z,49.54
2023-03-28T13:21:04.292Z,48.78
2023-03-28T13:23:46.085Z,50.07
2023-03-28T13:26:14.888Z,48.13
2023-03-28T13:28:45.789Z,47.97
2023-03-28T13:31:22.012Z,47.92
2023-03-28T13:33:55.076Z,49.66
2023-03-28T13:36:26.748Z,47.39
2023-03-28T13:39:09.541Z,52.07
2023-03-28T13:41:59.470Z,49.77
2023-03-28T13:44:34.746Z,51.16
2023-03-28T13:47:02.944Z,53.08
2023-03-28T13:49:42.767Z,50.00
2023-03-28T13:52:16.074Z,50.13
2023-03-28T13:54:46.627Z,50.83
2023-03-28T13:57:18.679Z,50.28
2023-03-28T13:59:53.032Z,50.70
2023-03-28T14:02:23.599Z,51.34
2023-03-28T14:04:54.378Z,49.80
2023-03-28T14:07:27.118Z,51.35
2023-03-28T14:09:58.108Z,51.32
2023-03-28T14:12:30.571Z,53.25
2023-03-28T14:15:00.004Z,50.17
2023-03-28T14:17:33.102Z,50.39
2023-03-28T14:20:03.908Z,50.52
2023-03-28T14:22:33.841Z,49.40
2023-03-28T14:25:06.659Z,50.07
2023-03-28T14:27:38.852Z,49.76
2023-03-28T14:30:19.500Z,50.82
2023-03-28T14:32:58.694Z,49.74
2023-03-28T14:35:29.693Z,48.09
2023-03-28T14:37:59.741Z,48.59
2023-03-28T14:40:35.362Z,50.10
2023-03-28T14:43:05.458Z,48.92
2023-03-28T14:45:37.413Z,50.52
2023-03-28T14:48:07.638Z,49.35
2023-03-28T14:50:38.927Z,49.86
2023-03-28T14:53:10.060Z,49.66
2023-03-28T14:55:41.889Z,49.79
2023-03-28T14:58:13.446Z,47.75
2023-03-28T15:00:43.410Z,48.10
2023-03-28T15:03:13.932Z,48.23
2023-03-28T15:05:44.599Z,49.79
2023-03-28T15:08:25.428Z,48.92
2023-03-28T15:10:56.963Z,47.50
2023-03-28T15:13:29.986Z,49.21
2023-03-28T15:15:59.299Z,49.18
2023-03-28T15:18:33.385Z,49.79
2023-03-28T15:21:04.522Z,50.19
2023-03-28T15:23:38.266Z,49.95
2023-03-28T15:26:14.141Z,49.36
2023-03-28T15:28:42.306Z,50.28
2023-03-28T15:31:15.192Z,49.72
2023-03-28T15:33:46.771Z,50.26
2023-03-28T15:36:17.372Z,49.35
2023-03-28T15:38:45.613Z,49.54
2023-03-28T15:41:22.310Z,48.96
2023-03-28T15:44:11.555Z,48.17
2023-03-28T15:46:39.456Z,48.21
2023-03-28T15:49:08.426Z,48.95
2023-03-28T15:51:48.947Z,50.33
2023-03-28T15:54:30.251Z,49.11
2023-03-28T15:57:01.965Z,50.16
2023-03-28T15:59:34.744Z,50.67
2023-03-28T16:02:30.931Z,50.86
2023-03-28T16:05:01.611Z,50.36
2023-03-28T16:07:35.830Z,50.25
2023-03-28T16:10:04.738Z,51.44
2023-03-28T16:12:43.470Z,51.30
2023-03-28T16:15:39.168Z,52.11
2023-03-28T16:18:36.016Z,53.39
2023-03-28T16:21:04.828Z,51.97
2023-03-28T16:23:32.528Z,51.74
2023-03-28T16:26:00.845Z,52.37
2023-03-28T16:28:30.364Z,53.59
2023-03-28T16:30:58.247Z,52.26
2023-03-28T16:33:25.983Z,52.38
2023-03-28T16:35:54.539Z,52.65
2023-03-28T16:38:22.734Z,53.52
2023-03-28T16:40:50.848Z,53.04
2023-03-28T16:43:18.795Z,52.71
2023-03-28T16:45:49.669Z,53.56
2023-03-28T16:48:18.063Z,53.38
2023-03-28T16:50:56.245Z,54.04
2023-03-28T16:53:24.032Z,54.23
2023-03-28T16:55:53.753Z,54.50
2023-03-28T16:58:21.628Z,54.61
2023-03-28T17:00:54.147Z,53.41
2023-03-28T17:03:22.149Z,53.57
2023-03-28T17:05:50.432Z,51.52
2023-03-28T17:08:18.087Z,52.93
2023-03-28T17:10:47.466Z,53.71
2023-03-28T17:13:15.690Z,51.96
2023-03-28T17:15:43.615Z,53.01
2023-03-28T17:18:12.717Z,53.31
2023-03-28T17:20:40.966Z,53.75
2023-03-28T17:23:09.016Z,54.10
2023-03-28T17:25:48.111Z,53.76
2023-03-28T17:28:22.938Z,54.27
2023-03-28T17:30:52.828Z,53.85
2023-03-28T17:33:29.401Z,55.01
2023-03-28T17:35:57.307Z,54.31
2023-03-28T17:38:25.591Z,53.71
2023-03-28T17:40:57.763Z,54.56
2023-03-28T17:43:26.222Z,55.05
2023-03-28T17:45:54.476Z,55.27
2023-03-28T17:48:22.623Z,55.50
2023-03-28T17:50:54.166Z,55.62
2023-03-28T17:53:22.026Z,55.69
2023-03-28T17:55:50.004Z,55.77
2023-03-28T17:58:17.727Z,56.20
2023-03-28T18:01:03.169Z,57.17
2023-03-28T18:03:32.293Z,57.01
2023-03-28T18:06:20.129Z,57.42
2023-03-28T18:08:48.271Z,57.96
2023-03-28T18:11:18.784Z,58.32
2023-03-28T18:13:46.981Z,58.60
2023-03-28T18:16:18.990Z,59.64
2023-03-28T18:18:47.475Z,59.91
2023-03-28T18:21:15.973Z,60.08
2023-03-28T18:23:45.576Z,59.70
2023-03-28T18:26:13.332Z,60.63
2023-03-28T18:28:41.815Z,61.74
2023-03-28T18:31:11.327Z,62.15
2023-03-28T18:33:40.212Z,63.47
2023-03-28T18:36:09.082Z,63.52
2023-03-28T18:38:38.395Z,63.71
2023-03-28T18:41:09.157Z,63.68
2023-03-28T18:43:38.166Z,64.34
2023-03-28T18:46:08.565Z,63.76
2023-03-28T18:48:37.292Z,63.83
2023-03-28T18:51:07.173Z,64.44
2023-03-28T18:53:37.863Z,64.24
2023-03-28T18:56:08.242Z,64.38
2023-03-28T18:58:36.995Z,65.45
2023-03-28T19:01:06.278Z,66.27
2023-03-28T19:03:39.872Z,66.73
2023-03-28T19:06:09.468Z,67.18
2023-03-28T19:08:37.640Z,68.83
2023-03-28T19:11:11.626Z,69.46
2023-03-28T19:13:39.562Z,69.14
2023-03-28T19:16:10.168Z,68.35
2023-03-28T19:18:39.364Z,67.57
2023-03-28T19:21:08.200Z,67.25
2023-03-28T19:23:37.506Z,67.25
2023-03-28T19:26:07.060Z,67.58
2023-03-28T19:28:37.321Z,68.47
2023-03-28T19:31:07.883Z,67.94
2023-03-28T19:33:37.086Z,69.38
2023-03-28T19:36:06.805Z,70.66
2023-03-28T19:38:36.056Z,69.58
2023-03-28T19:41:09.250Z,67.71
2023-03-28T19:43:39.616Z,68.35
2023-03-28T19:46:12.337Z,67.61
2023-03-28T19:48:41.190Z,68.60
2023-03-28T19:51:09.142Z,67.71
2023-03-28T19:53:37.462Z,65.99
2023-03-28T19:56:07.083Z,67.26
2023-03-28T19:58:35.356Z,66.20
2023-03-28T20:01:05.327Z,65.84
2023-03-28T20:03:33.611Z,67.14
2023-03-28T20:06:04.544Z,65.48
2023-03-28T20:08:34.229Z,65.02
2023-03-28T20:11:03.154Z,65.39
2023-03-28T20:13:31.460Z,66.15
2023-03-28T20:16:03.099Z,67.10
2023-03-28T20:18:32.706Z,68.17
2023-03-28T20:21:01.944Z,68.64
2023-03-28T20:23:32.644Z,70.30
2023-03-28T20:26:01.756Z,70.82
2023-03-28T20:28:32.377Z,68.97
2023-03-28T20:31:00.759Z,68.66
2023-03-28T20:33:29.985Z,70.09
2023-03-28T20:36:00.845Z,73.25
2023-03-28T20:38:30.469Z,76.64
2023-03-28T20:40:58.781Z,78.22
2023-03-28T20:43:29.439Z,87.76
2023-03-28T20:46:01.568Z,87.25
2023-03-28T20:48:36.449Z,85.82
2023-03-28T20:51:14.346Z,87.15
2023-03-28T20:53:43.539Z,87.34
2023-03-28T20:56:13.642Z,86.54
2023-03-28T20:58:42.802Z,90.72
2023-03-28T21:01:13.720Z,90.89
2023-03-28T21:03:48.171Z,89.47
2023-03-28T21:06:18.720Z,90.67
2023-03-28T21:08:48.639Z,92.56
2023-03-28T21:11:18.068Z,92.83
2023-03-28T21:13:46.947Z,91.59
2023-03-28T21:16:15.896Z,92.30
2023-03-28T21:18:44.256Z,92.59
2023-03-28T21:21:13.986Z,93.26
2023-03-28T21:23:44.554Z,92.76
2023-03-28T21:26:13.980Z,91.01
2023-03-28T21:28:41.794Z,89.31
2023-03-28T21:31:12.050Z,89.69
2023-03-28T21:33:41.460Z,92.13
2023-03-28T21:36:11.773Z,94.75
2023-03-28T21:38:39.686Z,97.59
2023-03-28T21:41:08.814Z,99.06
2023-03-28T21:43:37.146Z,100.00
2023-03-28T21:46:05.619Z,100.00
2023-03-28T21:48:33.580Z,99.28
2023-03-28T21:51:02.456Z,97.86
2023-03-28T21:53:32.564Z,97.97
2023-03-28T21:56:01.183Z,97.76
2023-03-28T21:58:33.384Z,96.39
2023-03-28T22:01:02.773Z,96.39
2023-03-28T22:03:31.913Z,97.92
2023-03-28T22:06:00.564Z,96.70
2023-03-28T22:08:28.346Z,96.94
2023-03-28T22:11:01.292Z,99.99
2023-03-28T22:13:31.007Z,100.00
2023-03-28T22:15:59.517Z,100.00
2023-03-28T22:18:27.826Z,100.00
2023-03-28T22:20:56.502Z,100.00
2023-03-28T22:23:25.616Z,100.00
2023-03-28T22:25:53.671Z,100.00
2023-03-28T22:28:24.927Z,100.00
2023-03-28T22:30:56.712Z,100.00
2023-03-28T22:33:25.707Z,100.00
2023-03-28T22:35:53.928Z,100.00
2023-03-28T22:38:21.655Z,100.00
2023-03-28T22:40:49.344Z,100.00
2023-03-28T22:43:17.708Z,100.00
2023-03-28T22:45:45.427Z,100.00
2023-03-28T22:48:15.049Z,100.00
2023-03-28T22:50:45.238Z,100.00
2023-03-28T22:53:14.178Z,100.00
2023-03-28T22:55:43.484Z,100.00
2023-03-28T22:58:11.965Z,100.00
2023-03-28T23:00:40.466Z,100.00
2023-03-28T23:03:08.885Z,100.00
2023-03-28T23:05:39.104Z,100.00
2023-03-28T23:08:07.423Z,100.00
2023-03-28T23:10:35.810Z,100.00
2023-03-28T23:13:03.969Z,100.00
2023-03-28T23:15:31.942Z,100.00
2023-03-28T23:18:00.170Z,100.00
2023-03-28T23:20:28.286Z,100.00
2023-03-28T23:22:57.601Z,100.00
2023-03-28T23:25:26.156Z,100.00
2023-03-28T23:27:53.906Z,100.00
2023-03-28T23:30:22.167Z,100.00
2023-03-28T23:32:50.201Z,100.00
2023-03-28T23:35:18.324Z,100.00
2023-03-28T23:37:46.769Z,100.00
2023-03-28T23:40:16.373Z,100.00
2023-03-28T23:42:45.160Z,100.00
2023-03-28T23:45:15.628Z,100.00
2023-03-28T23:47:44.585Z,100.00
2023-03-28T23:50:13.648Z,100.00
2023-03-28T23:52:41.872Z,100.00
2023-03-28T23:55:10.347Z,100.00
2023-03-28T23:57:40.075Z,100.00
